»·PEaware :: N1947L KSAC-KRDD

N1947L :: KSAC-KRDD

FLIGHT INFORMATION

Flight Status: Arrived
Operator: Privately registered:
United States
More flights under this callsign
Pilot: Kyal V. (18498)
Aircraft: CESSNA R182 TURBO SKYLANE
(C82R)
More flights by this aircraft type
Origin: KSAC Sacramento Executive
United States
Destination: KRDD Redding Mun
United States
More flights between these airports :: More routes between these airports
Route: +EYPOF V23 RBL
File this flight plan on PilotEdge
Remarks:
Altitude:
(Current/Filed)
4,000ft
Speed:
(Current/Filed)
130kts
Departed: 09-Sep-18 12:14 PM
Arrived: 09-Sep-18 01:15 PM
Distance/Time
Traveled:
125nm/1:01
Distance/Time
To Go:
Arrived

Flight Plot

Page will automatically refresh every two minutes.

Flight plan parsing failed; only flown route is shown


Map Options




Map Legend


Flown Route
Filed Route
Departure Airport
Arrival Airport
Navaid (VOR, NDB)
Fix

Horizontal Profiles

Position Reports

Time Latitude Longitude Heading Altitude Ground
Speed
09-Sep-18 11:59 38.513289 -121.497557 58 27ft 0kts
09-Sep-18 12:00 38.513289 -121.497557 58 27ft 0kts
09-Sep-18 12:01 38.513289 -121.497557 58 27ft 0kts
09-Sep-18 12:02 38.513289 -121.497557 58 27ft 0kts
09-Sep-18 12:03 38.513289 -121.497557 58 27ft 0kts
09-Sep-18 12:04 38.513290 -121.497556 58 27ft 0kts
09-Sep-18 12:05 38.513290 -121.497555 58 27ft 0kts
09-Sep-18 12:06 38.513291 -121.497554 58 27ft 0kts
09-Sep-18 12:07 38.513291 -121.497553 58 27ft 0kts
09-Sep-18 12:08 38.513291 -121.497553 58 27ft 0kts
09-Sep-18 12:09 38.513292 -121.497552 58 27ft 0kts
09-Sep-18 12:10 38.513292 -121.497551 58 27ft 0kts
09-Sep-18 12:11 38.513292 -121.497550 58 27ft 0kts
09-Sep-18 12:12 38.512777 -121.497113 196 27ft 13kts
09-Sep-18 12:13 38.515534 -121.493800 30 27ft 30kts
09-Sep-18 12:14 38.518873 -121.489818 110 27ft 0kts
09-Sep-18 12:15 38.518873 -121.489817 110 27ft 0kts
09-Sep-18 12:16 38.513131 -121.494116 211 163ft 88kts
09-Sep-18 12:17 38.503783 -121.519742 259 1808ft 82kts
09-Sep-18 12:18 38.504236 -121.556602 289 2942ft 98kts
09-Sep-18 12:19 38.512516 -121.591181 284 4071ft 116kts
09-Sep-18 12:20 38.522270 -121.639248 284 3998ft 150kts
09-Sep-18 12:21 38.532775 -121.690985 284 3994ft 150kts
09-Sep-18 12:22 38.543299 -121.742779 284 3994ft 150kts
09-Sep-18 12:23 38.553789 -121.794368 284 3994ft 150kts
09-Sep-18 12:24 38.574745 -121.833851 358 4025ft 147kts
09-Sep-18 12:25 38.614822 -121.821817 20 3993ft 149kts
09-Sep-18 12:26 38.653200 -121.802202 22 3993ft 147kts
09-Sep-18 12:27 38.691013 -121.782009 22 3994ft 147kts
09-Sep-18 12:28 38.728631 -121.761818 22 3994ft 147kts
09-Sep-18 12:29 38.766339 -121.741550 22 3994ft 147kts
09-Sep-18 12:30 38.804108 -121.721224 22 3994ft 147kts
09-Sep-18 12:31 38.841770 -121.700933 22 3994ft 147kts
09-Sep-18 12:32 38.880573 -121.690682 346 4007ft 146kts
09-Sep-18 12:33 38.920235 -121.703560 345 3993ft 147kts
09-Sep-18 12:34 38.959827 -121.716330 345 3994ft 147kts
09-Sep-18 12:35 38.999597 -121.729135 345 3994ft 147kts
09-Sep-18 12:36 39.039008 -121.741836 345 3994ft 147kts
09-Sep-18 12:37 39.078816 -121.754680 345 3994ft 147kts
09-Sep-18 12:38 39.118614 -121.767535 345 3994ft 147kts
09-Sep-18 12:39 39.158237 -121.780348 345 3994ft 147kts
09-Sep-18 12:40 39.197885 -121.793185 345 3994ft 147kts
09-Sep-18 12:41 39.237524 -121.806034 345 3994ft 147kts
09-Sep-18 12:42 39.277317 -121.818948 345 3994ft 147kts
09-Sep-18 12:43 39.316964 -121.831831 345 4033ft 145kts
09-Sep-18 12:44 39.355243 -121.849291 337 4040ft 147kts
09-Sep-18 12:45 39.393122 -121.869033 338 4040ft 147kts
09-Sep-18 12:46 39.431197 -121.888645 338 4040ft 147kts
09-Sep-18 12:47 39.469068 -121.908146 338 4040ft 147kts
09-Sep-18 12:48 39.507169 -121.927787 338 4040ft 147kts
09-Sep-18 12:49 39.545291 -121.947461 338 4040ft 147kts
09-Sep-18 12:50 39.583252 -121.967075 338 4040ft 147kts
09-Sep-18 12:51 39.621210 -121.986710 338 4040ft 147kts
09-Sep-18 12:52 39.659303 -122.006439 338 4040ft 147kts
09-Sep-18 12:53 39.697265 -122.026124 338 4040ft 147kts
09-Sep-18 12:54 39.735354 -122.045898 338 4040ft 147kts
09-Sep-18 12:55 39.773315 -122.065629 338 4040ft 147kts
09-Sep-18 12:56 39.811391 -122.085444 338 4040ft 147kts
09-Sep-18 12:57 39.849233 -122.105161 338 4040ft 147kts
09-Sep-18 12:58 39.887304 -122.125020 338 4040ft 147kts
09-Sep-18 12:59 39.925175 -122.144800 338 4077ft 146kts
09-Sep-18 13:00 39.963106 -122.164633 337 4077ft 147kts
09-Sep-18 13:01 40.000617 -122.185825 337 4077ft 147kts
09-Sep-18 13:02 40.038747 -122.205596 338 4076ft 147kts
09-Sep-18 13:03 40.076619 -122.224895 338 4077ft 146kts
09-Sep-18 13:04 40.115675 -122.244357 339 3831ft 155kts
09-Sep-18 13:05 40.156559 -122.265175 337 3338ft 158kts
09-Sep-18 13:06 40.196131 -122.287036 337 3072ft 150kts
09-Sep-18 13:07 40.236608 -122.295888 356 3077ft 147kts
09-Sep-18 13:08 40.278463 -122.296368 1 2743ft 131kts
09-Sep-18 13:09 40.308269 -122.295179 1 2780ft 101kts
09-Sep-18 13:10 40.338919 -122.294824 359 2780ft 113kts
09-Sep-18 13:11 40.370465 -122.295139 359 2777ft 114kts
09-Sep-18 13:12 40.399961 -122.295392 357 2472ft 100kts
09-Sep-18 13:13 40.425870 -122.295415 357 2009ft 88kts
09-Sep-18 13:14 40.447546 -122.295116 0 1582ft 97kts
09-Sep-18 13:15 40.473999 -122.294821 0 1087ft 93kts
09-Sep-18 13:16 40.500906 -122.294779 355 528ft 71kts
09-Sep-18 13:17 40.507878 -122.295845 327 505ft 0kts

Navigation Log

Ident Type
Flight plan parsing failed, navigation log unavailable